createdAt,value
2022-09-05T00:00:19.342Z,65.81
2022-09-05T00:03:24.775Z,64.57
2022-09-05T00:06:10.674Z,63.86
2022-09-05T00:09:12.673Z,64.20
2022-09-05T00:11:45.529Z,64.17
2022-09-05T00:14:36.766Z,64.54
2022-09-05T00:19:05.217Z,67.19
2022-09-05T00:24:25.692Z,65.95
2022-09-05T00:24:37.157Z,66.68
2022-09-05T00:26:53.972Z,67.45
2022-09-05T00:31:05.654Z,67.10
2022-09-05T00:32:55.539Z,66.01
2022-09-05T00:35:30.346Z,66.32
2022-09-05T00:37:59.248Z,65.68
2022-09-05T00:40:33.515Z,65.27
2022-09-05T00:43:08.193Z,66.06
2022-09-05T00:45:43.182Z,65.65
2022-09-05T00:48:21.517Z,65.94
2022-09-05T00:51:03.634Z,65.57
2022-09-05T00:53:39.633Z,65.76
2022-09-05T00:56:41.934Z,66.37
2022-09-05T00:59:31.518Z,65.22
2022-09-05T01:02:04.863Z,66.37
2022-09-05T01:04:38.590Z,65.90
2022-09-05T01:07:38.442Z,65.79
2022-09-05T01:10:19.936Z,65.39
2022-09-05T01:13:34.872Z,65.27
2022-09-05T01:16:54.514Z,65.19
2022-09-05T01:19:46.290Z,66.12
2022-09-05T01:22:55.421Z,65.67
2022-09-05T01:25:29.346Z,66.14
2022-09-05T01:29:16.479Z,65.93
2022-09-05T01:31:20.891Z,65.41
2022-09-05T01:33:57.591Z,65.42
2022-09-05T01:36:52.146Z,65.45
2022-09-05T01:40:14.756Z,65.92
2022-09-05T01:42:43.104Z,66.22
2022-09-05T01:45:20.940Z,67.06
2022-09-05T01:48:13.459Z,66.91
2022-09-05T01:50:52.002Z,66.99
2022-09-05T01:53:36.387Z,67.22
2022-09-05T01:56:22.176Z,67.12
2022-09-05T01:59:08.499Z,66.12
2022-09-05T02:01:40.656Z,65.16
2022-09-05T02:04:08.265Z,64.62
2022-09-05T02:07:19.987Z,65.13
2022-09-05T02:10:07.070Z,64.55
2022-09-05T02:13:02.323Z,65.45
2022-09-05T02:15:59.218Z,64.63
2022-09-05T02:18:47.564Z,65.07
2022-09-05T02:21:55.535Z,65.53
2022-09-05T02:24:37.144Z,66.25
2022-09-05T02:27:35.874Z,67.12
2022-09-05T02:30:09.081Z,66.94
2022-09-05T02:33:03.588Z,66.40
2022-09-05T02:35:55.787Z,66.20
2022-09-05T02:40:31.230Z,65.31
2022-09-05T02:45:11.899Z,66.81
2022-09-05T02:45:25.460Z,66.35
2022-09-05T02:48:15.638Z,65.21
2022-09-05T02:56:55.147Z,65.60
2022-09-05T02:57:33.718Z,65.82
2022-09-05T02:57:40.245Z,65.45
2022-09-05T03:00:01.637Z,65.19
2022-09-05T03:02:50.457Z,65.58
2022-09-05T03:05:25.094Z,66.38
2022-09-05T03:08:05.676Z,66.33
2022-09-05T03:11:07.167Z,66.10
2022-09-05T03:13:34.698Z,66.97
2022-09-05T03:16:13.543Z,67.21
2022-09-05T03:19:12.221Z,67.11
2022-09-05T03:22:11.520Z,65.72
2022-09-05T03:25:16.887Z,65.65
2022-09-05T03:28:21.938Z,66.17
2022-09-05T03:30:56.818Z,64.48
2022-09-05T03:33:24.057Z,65.22
2022-09-05T03:36:33.390Z,65.02
2022-09-05T03:39:31.053Z,66.60
2022-09-05T03:42:17.893Z,67.17
2022-09-05T03:45:11.460Z,66.58
2022-09-05T03:48:01.694Z,65.95
2022-09-05T03:57:12.924Z,67.06
2022-09-05T03:57:13.566Z,66.59
2022-09-05T03:57:38.427Z,68.53
2022-09-05T04:00:11.453Z,67.18
2022-09-05T04:06:10.325Z,67.21
2022-09-05T04:08:23.726Z,66.14
2022-09-05T04:08:54.231Z,66.16
2022-09-05T04:11:35.747Z,66.64
2022-09-05T04:14:08.656Z,66.34
2022-09-05T04:17:03.915Z,66.26
2022-09-05T04:19:49.903Z,66.09
2022-09-05T04:22:31.210Z,66.29
2022-09-05T04:25:07.168Z,66.85
2022-09-05T04:28:14.776Z,67.57
2022-09-05T04:30:57.627Z,67.33
2022-09-05T04:33:37.075Z,67.85
2022-09-05T04:36:24.330Z,67.44
2022-09-05T04:39:17.752Z,67.40
2022-09-05T04:41:49.289Z,66.69
2022-09-05T04:44:18.841Z,66.58
2022-09-05T04:46:53.618Z,66.27
2022-09-05T04:49:33.657Z,66.77
2022-09-05T04:52:31.634Z,64.89
2022-09-05T04:55:10.498Z,63.75
2022-09-05T04:57:58.477Z,63.62
2022-09-05T05:06:04.551Z,63.31
2022-09-05T05:06:09.762Z,61.91
2022-09-05T05:06:46.924Z,61.63
2022-09-05T05:09:26.406Z,61.23
2022-09-05T05:17:58.203Z,62.18
2022-09-05T05:18:02.497Z,62.31
2022-09-05T05:18:13.400Z,60.82
2022-09-05T05:20:54.297Z,60.94
2022-09-05T05:23:32.261Z,61.29
2022-09-05T05:26:02.837Z,61.16
2022-09-05T05:28:30.137Z,60.85
2022-09-05T05:31:09.420Z,58.87
2022-09-05T05:33:38.445Z,59.02
2022-09-05T05:36:08.562Z,57.33
2022-09-05T05:38:45.636Z,57.50
2022-09-05T05:41:32.618Z,58.05
2022-09-05T05:44:00.020Z,57.64
2022-09-05T05:46:34.208Z,56.99
2022-09-05T05:49:29.218Z,55.64
2022-09-05T05:52:13.129Z,58.12
2022-09-05T05:55:09.749Z,58.47
2022-09-05T05:58:02.046Z,59.82
2022-09-05T06:00:51.408Z,61.57
2022-09-05T06:03:36.301Z,60.64
2022-09-05T06:06:08.374Z,59.29
2022-09-05T06:11:20.422Z,56.76
2022-09-05T06:15:01.461Z,59.36
2022-09-05T06:15:10.735Z,56.88
2022-09-05T06:17:38.721Z,54.59
2022-09-05T06:22:03.950Z,56.43
2022-09-05T06:23:38.846Z,54.28
2022-09-05T06:26:17.314Z,52.54
2022-09-05T06:28:59.724Z,54.21
2022-09-05T06:31:42.319Z,55.51
2022-09-05T06:34:14.380Z,54.86
2022-09-05T06:37:09.788Z,53.70
2022-09-05T06:40:12.025Z,52.51
2022-09-05T06:43:13.653Z,54.44
2022-09-05T06:46:52.858Z,54.36
2022-09-05T06:49:32.517Z,54.30
2022-09-05T06:52:28.175Z,54.37
2022-09-05T06:55:19.227Z,54.38
2022-09-05T06:58:05.862Z,51.01
2022-09-05T07:00:49.089Z,52.65
2022-09-05T07:03:43.652Z,54.20
2022-09-05T07:06:59.327Z,50.51
2022-09-05T07:09:52.115Z,51.71
2022-09-05T07:12:30.003Z,50.65
2022-09-05T07:15:20.855Z,50.62
2022-09-05T07:18:10.145Z,51.33
2022-09-05T07:21:15.599Z,50.05
2022-09-05T07:24:06.980Z,49.91
2022-09-05T07:26:54.306Z,49.89
2022-09-05T07:29:49.704Z,50.36
2022-09-05T07:32:30.093Z,50.54
2022-09-05T07:34:58.895Z,50.18
2022-09-05T07:37:39.889Z,49.76
2022-09-05T07:40:26.380Z,50.48
2022-09-05T07:43:09.484Z,50.80
2022-09-05T07:45:52.173Z,49.83
2022-09-05T07:48:35.124Z,47.71
2022-09-05T07:56:46.796Z,50.05
2022-09-05T07:57:07.803Z,48.01
2022-09-05T07:59:51.376Z,46.90
2022-09-05T08:02:19.024Z,46.93
2022-09-05T08:04:46.775Z,47.29
2022-09-05T08:07:48.874Z,46.17
2022-09-05T08:10:15.965Z,44.89
2022-09-05T08:13:23.066Z,44.55
2022-09-05T08:16:00.696Z,47.87
2022-09-05T08:18:21.423Z,45.98
2022-09-05T08:20:55.357Z,46.93
2022-09-05T08:23:44.445Z,46.91
2022-09-05T08:26:30.789Z,44.52
2022-09-05T08:29:34.241Z,44.96
2022-09-05T08:32:13.742Z,44.26
2022-09-05T08:34:49.199Z,43.14
2022-09-05T08:37:26.062Z,46.68
2022-09-05T08:40:07.283Z,46.31
2022-09-05T08:43:45.743Z,45.52
2022-09-05T08:46:41.201Z,42.95
2022-09-05T08:49:12.314Z,40.93
2022-09-05T08:51:53.956Z,41.59
2022-09-05T08:54:32.635Z,40.91
2022-09-05T08:57:08.232Z,43.22
2022-09-05T09:00:18.919Z,41.81
2022-09-05T09:03:04.234Z,42.10
2022-09-05T09:06:12.843Z,41.67
2022-09-05T09:09:05.979Z,41.97
2022-09-05T09:12:12.105Z,43.17
2022-09-05T09:14:54.745Z,42.80
2022-09-05T09:17:37.322Z,44.33
2022-09-05T09:20:33.549Z,41.97
2022-09-05T09:23:07.121Z,44.28
2022-09-05T09:26:17.030Z,42.26
2022-09-05T09:28:51.680Z,41.47
2022-09-05T09:31:40.909Z,41.11
2022-09-05T09:34:21.010Z,40.03
2022-09-05T09:37:16.423Z,39.76
2022-09-05T09:40:06.479Z,43.38
2022-09-05T09:42:56.112Z,44.12
2022-09-05T09:45:53.203Z,43.57
2022-09-05T09:48:48.265Z,44.24
2022-09-05T09:51:55.771Z,43.58
2022-09-05T09:54:57.239Z,44.27
2022-09-05T09:57:37.567Z,43.77
2022-09-05T10:00:11.334Z,45.16
2022-09-05T10:04:39.612Z,44.88
2022-09-05T10:10:40.320Z,44.03
2022-09-05T10:11:09.665Z,45.51
2022-09-05T10:12:40.178Z,45.12
2022-09-05T10:15:30.325Z,45.53
2022-09-05T10:18:31.463Z,43.44
2022-09-05T10:21:16.366Z,39.73
2022-09-05T10:24:09.091Z,40.76
2022-09-05T10:27:15.529Z,40.62
2022-09-05T10:30:04.732Z,41.71
2022-09-05T10:35:10.680Z,40.39
2022-09-05T10:35:43.190Z,41.15
2022-09-05T10:38:14.575Z,41.78
2022-09-05T10:41:19.949Z,42.69
2022-09-05T10:43:46.410Z,42.66
2022-09-05T10:46:50.624Z,40.93
2022-09-05T10:49:26.279Z,39.77
2022-09-05T10:52:18.196Z,39.80
2022-09-05T10:55:15.198Z,40.30
2022-09-05T10:57:58.435Z,39.98
2022-09-05T11:02:21.303Z,39.82
2022-09-05T11:03:47.931Z,39.90
2022-09-05T11:06:20.945Z,39.17
2022-09-05T11:09:28.097Z,37.88
2022-09-05T11:12:24.816Z,36.86
2022-09-05T11:14:55.123Z,36.50
2022-09-05T11:17:39.889Z,36.60
2022-09-05T11:20:44.494Z,36.89
2022-09-05T11:23:19.806Z,37.72
2022-09-05T11:25:53.507Z,38.78
2022-09-05T11:28:37.636Z,38.53
2022-09-05T11:31:15.728Z,38.68
2022-09-05T11:39:46.309Z,38.76
2022-09-05T11:39:59.171Z,37.65
2022-09-05T11:40:31.184Z,39.15
2022-09-05T11:43:19.916Z,41.79
2022-09-05T11:46:24.553Z,40.56
2022-09-05T11:49:31.400Z,40.59
2022-09-05T11:52:36.633Z,39.43
2022-09-05T11:55:21.429Z,39.07
2022-09-05T11:57:58.966Z,39.77
2022-09-05T12:00:41.660Z,40.07
2022-09-05T12:04:14.336Z,37.10
2022-09-05T12:07:03.142Z,38.93
2022-09-05T12:10:46.547Z,39.30
2022-09-05T12:13:17.187Z,40.29
2022-09-05T12:16:07.577Z,39.34
2022-09-05T12:18:44.599Z,40.21
2022-09-05T12:21:37.642Z,40.66
2022-09-05T12:25:15.520Z,42.01
2022-09-05T12:27:41.953Z,41.51
2022-09-05T12:30:00.680Z,41.96
2022-09-05T12:33:58.208Z,40.88
2022-09-05T12:36:11.452Z,41.20
2022-09-05T12:40:57.093Z,40.94
2022-09-05T12:42:15.200Z,39.10
2022-09-05T12:44:46.395Z,41.25
2022-09-05T12:47:19.237Z,40.59
2022-09-05T12:50:14.874Z,40.51
2022-09-05T12:52:44.943Z,39.93
2022-09-05T12:55:20.211Z,38.94
2022-09-05T13:01:41.965Z,39.23
2022-09-05T13:03:07.759Z,40.37
2022-09-05T13:03:48.680Z,39.62
2022-09-05T13:06:39.418Z,41.44
2022-09-05T13:09:19.544Z,42.36
2022-09-05T13:14:47.780Z,40.65
2022-09-05T13:15:14.201Z,40.52
2022-09-05T13:17:48.785Z,39.76
2022-09-05T13:20:21.702Z,41.89
2022-09-05T13:22:52.085Z,39.48
2022-09-05T13:25:29.710Z,39.98
2022-09-05T13:28:05.051Z,39.34
2022-09-05T13:36:01.304Z,38.24
2022-09-05T13:38:10.675Z,38.68
2022-09-05T13:38:11.508Z,39.81
2022-09-05T13:39:28.154Z,39.19
2022-09-05T13:41:59.614Z,38.79
2022-09-05T13:44:29.735Z,39.05
2022-09-05T13:47:30.325Z,38.33
2022-09-05T13:50:34.269Z,38.54
2022-09-05T13:53:05.380Z,39.39
2022-09-05T13:55:42.244Z,38.66
2022-09-05T13:58:21.864Z,37.72
2022-09-05T14:01:27.065Z,37.82
2022-09-05T14:07:44.799Z,37.68
2022-09-05T14:10:49.275Z,38.84
2022-09-05T14:13:30.199Z,38.48
2022-09-05T14:16:05.898Z,38.36
2022-09-05T14:18:55.899Z,38.20
2022-09-05T14:21:26.949Z,38.89
2022-09-05T14:24:09.846Z,37.75
2022-09-05T14:26:58.997Z,38.71
2022-09-05T14:29:33.167Z,37.55
2022-09-05T14:37:34.751Z,37.54
2022-09-05T14:37:52.109Z,37.33
2022-09-05T14:38:11.610Z,37.92
2022-09-05T14:40:52.244Z,37.20
2022-09-05T14:43:38.510Z,37.96
2022-09-05T14:46:08.875Z,37.68
2022-09-05T14:49:07.245Z,36.90
2022-09-05T14:51:34.583Z,39.96
2022-09-05T14:54:13.179Z,38.10
2022-09-05T15:00:56.701Z,38.36
2022-09-05T15:02:42.573Z,37.99
2022-09-05T15:03:02.208Z,38.72
2022-09-05T15:05:45.956Z,37.61
2022-09-05T15:10:09.141Z,37.89
2022-09-05T15:12:19.891Z,36.68
2022-09-05T15:14:06.415Z,36.17
2022-09-05T15:16:38.655Z,38.10
2022-09-05T15:19:10.020Z,36.55
2022-09-05T15:21:41.315Z,36.47
2022-09-05T15:24:21.389Z,35.75
2022-09-05T15:26:53.910Z,36.88
2022-09-05T15:29:26.764Z,36.58
2022-09-05T15:32:22.485Z,36.34
2022-09-05T15:34:51.043Z,35.34
2022-09-05T15:37:37.975Z,35.56
2022-09-05T15:40:22.464Z,35.45
2022-09-05T15:42:58.165Z,35.17
2022-09-05T15:45:27.095Z,35.00
2022-09-05T15:48:26.317Z,34.73
2022-09-05T15:51:07.879Z,35.07
2022-09-05T15:53:38.266Z,35.74
2022-09-05T15:56:11.593Z,34.78
2022-09-05T15:58:53.472Z,35.92
2022-09-05T16:01:58.230Z,35.56
2022-09-05T16:09:58.179Z,36.16
2022-09-05T16:10:46.154Z,36.61
2022-09-05T16:10:49.601Z,35.25
2022-09-05T16:13:17.858Z,35.99
2022-09-05T16:22:44.467Z,36.39
2022-09-05T16:23:24.442Z,35.76
2022-09-05T16:23:28.268Z,36.34
2022-09-05T16:24:58.123Z,36.51
2022-09-05T16:27:43.527Z,37.28
2022-09-05T16:30:19.065Z,37.16
2022-09-05T16:32:51.147Z,36.69
2022-09-05T16:35:26.260Z,36.89
2022-09-05T16:38:05.444Z,36.68
2022-09-05T16:40:39.270Z,37.04
2022-09-05T16:43:06.717Z,37.20
2022-09-05T16:45:57.024Z,37.26
2022-09-05T16:48:40.013Z,38.31
2022-09-05T16:51:34.684Z,38.73
2022-09-05T16:54:21.961Z,38.57
2022-09-05T16:56:53.682Z,40.11
2022-09-05T16:59:32.468Z,39.98
2022-09-05T17:02:09.879Z,40.06
2022-09-05T17:05:03.396Z,39.50
2022-09-05T17:07:57.754Z,40.41
2022-09-05T17:10:34.375Z,40.38
2022-09-05T17:13:02.643Z,40.40
2022-09-05T17:15:39.303Z,40.97
2022-09-05T17:18:24.158Z,41.48
2022-09-05T17:20:59.344Z,41.60
2022-09-05T17:29:17.918Z,42.05
2022-09-05T17:29:30.723Z,42.27
2022-09-05T17:32:46.269Z,43.58
2022-09-05T17:35:26.153Z,43.37
2022-09-05T17:38:36.368Z,43.97
2022-09-05T17:41:43.190Z,44.10
2022-09-05T17:45:06.397Z,44.71
2022-09-05T17:47:57.632Z,44.32
2022-09-05T17:50:25.189Z,45.29
2022-09-05T17:53:25.375Z,45.89
2022-09-05T17:55:55.177Z,45.34
2022-09-05T17:58:47.528Z,45.87
2022-09-05T18:01:26.882Z,46.15
2022-09-05T18:04:06.813Z,47.74
2022-09-05T18:06:59.039Z,48.36
2022-09-05T18:09:37.376Z,48.45
2022-09-05T18:12:28.654Z,47.73
2022-09-05T18:15:27.730Z,47.46
2022-09-05T18:18:01.433Z,47.29
2022-09-05T18:20:41.402Z,47.92
2022-09-05T18:23:43.634Z,49.05
2022-09-05T18:26:21.829Z,49.02
2022-09-05T18:29:02.504Z,48.98
2022-09-05T18:31:41.803Z,49.46
2022-09-05T18:34:13.127Z,49.48
2022-09-05T18:36:45.851Z,50.88
2022-09-05T18:39:29.504Z,51.55
2022-09-05T18:42:16.130Z,51.98
2022-09-05T18:44:59.384Z,52.69
2022-09-05T18:47:59.330Z,54.73
2022-09-05T18:50:41.087Z,53.83
2022-09-05T18:53:25.097Z,52.72
2022-09-05T18:56:10.105Z,52.12
2022-09-05T18:58:52.039Z,51.66
2022-09-05T19:01:27.648Z,52.48
2022-09-05T19:04:00.568Z,52.83
2022-09-05T19:06:34.623Z,53.25
2022-09-05T19:09:09.051Z,53.26
2022-09-05T19:11:53.556Z,53.24
2022-09-05T19:14:34.100Z,53.09
2022-09-05T19:17:27.337Z,53.53
2022-09-05T19:20:30.593Z,53.54
2022-09-05T19:23:11.985Z,52.79
2022-09-05T19:25:45.501Z,54.98
2022-09-05T19:33:59.719Z,56.41
2022-09-05T19:36:49.843Z,56.87
2022-09-05T19:37:08.888Z,57.38
2022-09-05T19:47:28.639Z,54.58
2022-09-05T19:47:49.923Z,56.63
2022-09-05T19:47:50.727Z,54.63
2022-09-05T19:48:34.961Z,55.54
2022-09-05T19:51:17.523Z,56.35
2022-09-05T19:54:04.177Z,56.78
2022-09-05T19:56:43.470Z,58.07
2022-09-05T19:59:19.892Z,57.82
2022-09-05T20:01:48.432Z,57.25
2022-09-05T20:04:18.843Z,56.76
2022-09-05T20:06:47.841Z,56.75
2022-09-05T20:09:18.214Z,56.74
2022-09-05T20:11:49.739Z,56.84
2022-09-05T20:14:31.874Z,57.31
2022-09-05T20:17:17.803Z,57.05
2022-09-05T20:19:45.438Z,56.45
2022-09-05T20:22:49.731Z,56.65
2022-09-05T20:25:10.739Z,56.93
2022-09-05T20:27:58.742Z,57.32
2022-09-05T20:30:33.009Z,57.74
2022-09-05T20:33:06.136Z,58.42
2022-09-05T20:38:23.909Z,58.64
2022-09-05T20:43:19.848Z,58.72
2022-09-05T20:43:32.031Z,58.86
2022-09-05T20:44:22.802Z,59.25
2022-09-05T20:51:19.895Z,60.83
2022-09-05T20:54:17.178Z,63.50
2022-09-05T20:54:18.397Z,61.91
2022-09-05T20:55:41.399Z,60.72
2022-09-05T20:58:11.958Z,60.24
2022-09-05T21:01:21.747Z,60.11
2022-09-05T21:03:40.995Z,60.55
2022-09-05T21:06:22.595Z,59.80
2022-09-05T21:08:51.406Z,59.65
2022-09-05T21:11:28.903Z,59.69
2022-09-05T21:13:57.392Z,58.92
2022-09-05T21:16:30.471Z,59.60
2022-09-05T21:18:58.006Z,61.15
2022-09-05T21:21:30.046Z,60.20
2022-09-05T21:24:08.969Z,60.89
2022-09-05T21:26:45.052Z,59.63
2022-09-05T21:29:12.315Z,60.45
2022-09-05T21:31:46.398Z,62.02
2022-09-05T21:34:25.228Z,61.11
2022-09-05T21:37:06.361Z,59.71
2022-09-05T21:39:39.964Z,60.31
2022-09-05T21:43:21.646Z,60.63
2022-09-05T21:47:44.676Z,60.70
2022-09-05T21:47:52.195Z,61.56
2022-09-05T21:50:31.273Z,62.11
2022-09-05T21:54:11.556Z,61.40
2022-09-05T21:59:19.660Z,60.66
2022-09-05T21:59:26.995Z,61.40
2022-09-05T22:01:51.053Z,59.76
2022-09-05T22:04:15.301Z,58.58
2022-09-05T22:06:48.578Z,58.41
2022-09-05T22:09:17.801Z,59.41
2022-09-05T22:11:50.421Z,59.43
2022-09-05T22:14:23.624Z,60.77
2022-09-05T22:16:53.512Z,60.43
2022-09-05T22:19:24.394Z,59.96
2022-09-05T22:21:57.744Z,59.53
2022-09-05T22:24:28.018Z,59.31
2022-09-05T22:27:12.513Z,59.86
2022-09-05T22:29:40.844Z,59.76
2022-09-05T22:32:08.811Z,58.72
2022-09-05T22:34:36.306Z,60.77
2022-09-05T22:37:03.947Z,61.76
2022-09-05T22:39:37.854Z,61.32
2022-09-05T22:42:10.107Z,60.83
2022-09-05T22:44:39.651Z,62.95
2022-09-05T22:47:10.921Z,62.77
2022-09-05T22:49:38.317Z,61.73
2022-09-05T22:52:06.845Z,62.84
2022-09-05T22:54:35.321Z,61.19
2022-09-05T22:57:03.807Z,60.96
2022-09-05T22:59:31.350Z,59.52
2022-09-05T23:01:59.132Z,60.90
2022-09-05T23:04:26.628Z,60.45
2022-09-05T23:06:54.071Z,61.31
2022-09-05T23:09:21.921Z,61.49
2022-09-05T23:11:49.271Z,61.34
2022-09-05T23:14:16.742Z,60.33
2022-09-05T23:16:44.420Z,61.92
2022-09-05T23:19:11.841Z,62.27
2022-09-05T23:21:39.223Z,61.95
2022-09-05T23:24:06.883Z,65.13
2022-09-05T23:26:34.264Z,61.52
2022-09-05T23:29:01.649Z,61.84
2022-09-05T23:31:29.316Z,61.65
2022-09-05T23:33:58.226Z,63.32
2022-09-05T23:36:25.642Z,61.96
2022-09-05T23:38:53.281Z,61.58
2022-09-05T23:41:20.671Z,60.86
2022-09-05T23:43:48.064Z,61.45
2022-09-05T23:46:15.820Z,61.27
2022-09-05T23:48:43.295Z,61.16
2022-09-05T23:51:12.503Z,61.57
2022-09-05T23:53:40.227Z,61.40
2022-09-05T23:56:09.047Z,60.49
2022-09-05T23:58:36.711Z,64.33
